Time;durP1;ratioP1;P1;durP2;ratioP2;P2;SDS_P1;SDS_P2;PMS_P1;PMS_P2;Temp;Humidity;BMP_temperature;BMP_pressure;BME280_temperature;BME280_humidity;BME280_pressure;Samples;Min_cycle;Max_cycle;Signal;HPM_P1;HPM_P2
2022/11/28 00:02:10;;;;;;;8.30;6.05;;;;;;;4.76;64.03;95518.88;5008621;28;20116;-83
2022/11/28 00:04:36;;;;;;;11.93;6.82;;;;;;;4.74;64.06;95518.44;5024735;28;20402;-83
2022/11/28 00:07:01;;;;;;;10.55;7.07;;;;;;;4.74;64.05;95521.19;5024710;28;20025;-82
2022/11/28 00:09:27;;;;;;;12.43;6.88;;;;;;;4.72;64.04;95518.06;4991661;28;20239;-82
2022/11/28 00:11:52;;;;;;;13.77;6.95;;;;;;;4.73;64.03;95516.91;5008073;28;20029;-81
2022/11/28 00:14:18;;;;;;;9.23;6.95;;;;;;;4.62;64.12;95520.75;5025577;28;20029;-81
2022/11/28 00:16:44;;;;;;;11.57;8.25;;;;;;;4.63;64.36;95519.59;5007752;28;20410;-82
2022/11/28 00:19:10;;;;;;;10.40;7.40;;;;;;;4.65;64.35;95514.56;5024139;28;20116;-81
2022/11/28 00:21:36;;;;;;;11.95;7.95;;;;;;;4.62;64.47;95521.53;5008663;28;20293;-82
2022/11/28 00:24:01;;;;;;;9.65;6.65;;;;;;;4.69;64.00;95516.09;5008133;28;20419;-82
2022/11/28 00:26:32;;;;;;;11.00;7.65;;;;;;;4.70;63.93;95512.25;4992074;28;20075;-83
2022/11/28 00:28:57;;;;;;;11.20;6.75;;;;;;;4.66;64.24;95516.88;5003641;28;20098;-82
2022/11/28 00:31:24;;;;;;;10.25;7.20;;;;;;;4.67;64.16;95523.88;4993021;28;20485;-81
2022/11/28 00:33:50;;;;;;;8.38;6.15;;;;;;;4.74;64.03;95512.22;5025652;28;20026;-81
2022/11/28 00:36:16;;;;;;;9.30;6.25;;;;;;;4.75;63.81;95516.50;5008816;28;20034;-82
2022/11/28 00:38:41;;;;;;;8.60;5.93;;;;;;;4.76;63.54;95523.53;5009448;28;20037;-83
2022/11/28 00:41:18;;;;;;;6.97;5.18;;;;;;;4.65;63.85;95517.28;4991986;28;20395;-83
2022/11/28 00:43:44;;;;;;;9.55;6.28;;;;;;;4.65;64.06;95514.56;5026151;28;20087;-83
2022/11/28 00:46:09;;;;;;;8.38;6.00;;;;;;;4.66;63.89;95516.88;5008684;28;20025;-82
2022/11/28 00:48:35;;;;;;;8.40;5.72;;;;;;;4.69;64.10;95520.78;5024381;28;20083;-83
2022/11/28 00:51:07;;;;;;;8.35;5.68;;;;;;;4.72;63.90;95517.28;5008406;28;20021;-83
2022/11/28 00:53:33;;;;;;;8.23;6.10;;;;;;;4.72;63.75;95517.28;4991747;28;20038;-83
2022/11/28 00:55:58;;;;;;;9.85;6.40;;;;;;;4.69;63.93;95509.88;5008265;28;20479;-83
2022/11/28 00:58:24;;;;;;;8.80;5.70;;;;;;;4.65;63.76;95500.94;5025718;28;20419;-83
2022/11/28 01:00:49;;;;;;;9.02;5.88;;;;;;;4.71;63.51;95510.28;5010669;28;20469;-80
2022/11/28 01:03:14;;;;;;;8.40;5.15;;;;;;;4.74;63.79;95509.50;5037996;28;20037;-82
2022/11/28 01:05:42;;;;;;;7.20;5.03;;;;;;;4.62;63.89;95502.47;5027616;28;20021;-82
2022/11/28 01:08:07;;;;;;;8.05;5.82;;;;;;;4.62;64.18;95505.19;5008732;28;20033;-82
2022/11/28 01:10:33;;;;;;;8.40;5.72;;;;;;;4.60;63.93;95512.97;5007333;28;20035;-82
2022/11/28 01:12:58;;;;;;;7.88;5.22;;;;;;;4.63;63.74;95503.25;5024370;28;20026;-81
2022/11/28 01:15:24;;;;;;;7.45;5.45;;;;;;;4.60;63.88;95502.09;5024348;28;20040;-83
2022/11/28 01:17:49;;;;;;;7.88;5.65;;;;;;;4.53;63.96;95504.78;5024434;28;20025;-83
2022/11/28 01:20:14;;;;;;;6.57;5.00;;;;;;;4.51;63.88;95505.16;5023726;28;20021;-83
2022/11/28 01:22:40;;;;;;;7.70;5.53;;;;;;;4.56;64.03;95512.16;5007670;28;20034;-83
2022/11/28 01:25:06;;;;;;;6.90;5.22;;;;;;;4.57;63.72;95500.13;5007509;28;20021;-83
2022/11/28 01:27:31;;;;;;;7.28;5.40;;;;;;;4.58;63.80;95507.13;5025398;28;20412;-83
2022/11/28 01:29:57;;;;;;;7.43;5.22;;;;;;;4.60;63.83;95504.03;5010508;28;20095;-82
2022/11/28 01:32:23;;;;;;;8.25;5.13;;;;;;;4.56;63.61;95498.56;5027393;28;20152;-82
2022/11/28 01:34:48;;;;;;;7.47;5.68;;;;;;;4.57;63.61;95491.94;5038531;28;20072;-83
2022/11/28 01:37:14;;;;;;;9.50;6.15;;;;;;;4.61;63.55;95497.41;5012284;28;20026;-83
2022/11/28 01:39:39;;;;;;;9.07;6.15;;;;;;;4.52;63.66;95489.59;5028756;28;20095;-83
2022/11/28 01:42:05;;;;;;;8.40;5.68;;;;;;;4.56;63.51;95489.63;5011885;28;20036;-83
2022/11/28 01:44:30;;;;;;;9.95;6.78;;;;;;;4.61;63.58;95486.53;5029564;28;20034;-83
2022/11/28 01:46:55;;;;;;;8.25;5.63;;;;;;;4.62;63.18;95488.06;5029504;28;20032;-83
2022/11/28 01:49:21;;;;;;;9.90;7.15;;;;;;;4.62;63.21;95486.13;5027059;28;20041;-85
2022/11/28 01:51:48;;;;;;;9.88;6.95;;;;;;;4.55;63.40;95482.63;5029267;28;20029;-80
2022/11/28 01:54:13;;;;;;;9.48;6.88;;;;;;;4.56;63.50;95484.16;5010444;28;20037;-80
2022/11/28 01:56:45;;;;;;;10.40;7.28;;;;;;;4.55;63.48;95482.63;5011100;28;20034;-82
2022/11/28 01:59:11;;;;;;;11.32;7.43;;;;;;;4.54;63.19;95476.38;5011074;28;20044;-80
2022/11/28 02:01:36;;;;;;;12.15;7.32;;;;;;;4.51;63.28;95483.38;4994583;28;20029;-82
2022/11/28 02:04:02;;;;;;;10.48;7.85;;;;;;;4.40;63.55;95479.81;4994336;28;20041;-83
2022/11/28 02:06:28;;;;;;;10.52;7.53;;;;;;;4.38;63.49;95481.38;5010561;28;20559;-83
2022/11/28 02:08:54;;;;;;;11.27;7.53;;;;;;;4.44;63.46;95480.63;5027387;28;20033;-83
2022/11/28 02:11:33;;;;;;;11.07;7.13;;;;;;;4.47;63.43;95473.63;5010094;28;20029;-83
2022/11/28 02:14:05;;;;;;;10.25;7.85;;;;;;;4.43;63.56;95476.34;5013920;28;20037;-81
2022/11/28 02:16:36;;;;;;;10.70;7.97;;;;;;;4.43;63.61;95470.91;5044688;28;20025;-82
2022/11/28 02:19:23;;;;;;;9.75;7.47;;;;;;;4.42;63.60;95469.34;5034135;28;20029;-80
2022/11/28 02:21:51;;;;;;;10.32;7.35;;;;;;;4.45;63.52;95468.56;5028771;28;20029;-81
2022/11/28 02:24:44;;;;;;;10.50;7.30;;;;;;;4.43;63.61;95467.41;5026144;28;20113;-81
2022/11/28 02:27:55;;;;;;;11.75;8.10;;;;;;;4.43;63.54;95470.91;5010057;28;20410;-81
2022/11/28 02:30:44;;;;;;;13.52;8.50;;;;;;;4.42;63.44;95471.31;5025443;28;20049;-81
2022/11/28 02:33:12;;;;;;;13.00;8.00;;;;;;;4.37;63.57;95477.13;5007169;28;20044;-81
2022/11/28 02:35:49;;;;;;;12.38;8.60;;;;;;;4.40;63.49;95471.66;5027991;28;20384;-81
2022/11/28 02:38:21;;;;;;;12.68;8.57;;;;;;;4.37;63.28;95477.88;5026312;28;20375;-82
2022/11/28 02:41:04;;;;;;;14.57;8.52;;;;;;;4.37;63.65;95477.88;5020286;28;20035;-83
2022/11/28 02:43:39;;;;;;;9.93;7.17;;;;;;;4.36;63.56;95468.16;5012885;28;20040;-82
2022/11/28 02:46:17;;;;;;;14.70;8.20;;;;;;;4.34;63.60;95477.88;5008520;28;20160;-82
2022/11/28 02:48:54;;;;;;;12.43;8.07;;;;;;;4.33;63.86;95470.88;5010312;28;20493;-82
2022/11/28 02:51:28;;;;;;;12.25;8.05;;;;;;;4.34;63.84;95473.19;4995409;28;20510;-81
2022/11/28 02:53:54;;;;;;;13.18;7.85;;;;;;;4.36;63.83;95468.16;5011163;28;20397;-81
2022/11/28 02:56:19;;;;;;;11.18;7.40;;;;;;;4.40;63.87;95470.88;4993557;28;20561;-82
2022/11/28 02:58:45;;;;;;;11.93;7.18;;;;;;;4.38;64.09;95473.22;5025751;28;20033;-83
2022/11/28 03:01:20;;;;;;;13.70;8.15;;;;;;;4.39;64.03;95475.56;4993855;28;20029;-83
2022/11/28 03:03:59;;;;;;;9.50;7.05;;;;;;;4.41;63.77;95478.66;5010017;28;20021;-82
2022/11/28 03:06:46;;;;;;;10.50;7.93;;;;;;;4.37;64.29;95471.66;4994905;28;20076;-82
2022/11/28 03:09:37;;;;;;;11.13;7.70;;;;;;;4.25;64.46;95472.78;5027191;28;20505;-82
2022/11/28 03:12:14;;;;;;;11.70;7.35;;;;;;;4.28;64.33;95471.22;5009214;28;20034;-82
2022/11/28 03:14:39;;;;;;;11.50;7.28;;;;;;;4.29;64.18;95481.72;5009708;28;20109;-82
2022/11/28 03:17:20;;;;;;;10.75;7.10;;;;;;;4.23;64.23;95464.97;5027047;28;20116;-81
2022/11/28 03:20:18;;;;;;;9.20;6.43;;;;;;;4.31;64.10;95476.69;4994235;28;20025;-82
2022/11/28 03:22:53;;;;;;;8.43;6.25;;;;;;;4.22;64.22;95471.59;4996997;28;20059;-82
2022/11/28 03:25:56;;;;;;;9.70;6.38;;;;;;;4.25;64.40;95478.22;5009959;28;20029;-82
2022/11/28 03:28:25;;;;;;;7.85;5.65;;;;;;;4.21;64.37;95472.00;5027125;28;20037;-82
2022/11/28 03:30:57;;;;;;;7.22;5.47;;;;;;;4.19;64.30;95471.59;5008769;28;20500;-82
2022/11/28 03:33:23;;;;;;;8.43;5.45;;;;;;;4.20;64.36;95470.44;4992851;28;20029;-82
2022/11/28 03:35:52;;;;;;;9.07;5.88;;;;;;;4.15;64.41;95473.50;5025400;28;20034;-82
2022/11/28 03:38:24;;;;;;;8.43;5.10;;;;;;;4.17;64.46;95473.91;4992795;28;20052;-82
2022/11/28 03:40:51;;;;;;;9.40;5.22;;;;;;;4.24;64.30;95473.94;5008829;28;20091;-81
2022/11/28 03:43:19;;;;;;;6.85;4.70;;;;;;;4.30;64.16;95468.91;5025398;28;20116;-81
2022/11/28 03:45:47;;;;;;;7.05;4.60;;;;;;;4.32;63.80;95478.25;5026562;28;20034;-81
2022/11/28 03:48:26;;;;;;;5.50;4.00;;;;;;;4.23;64.22;95473.16;5015693;28;20057;-81
2022/11/28 03:51:15;;;;;;;7.30;4.53;;;;;;;4.08;64.82;95468.06;4979106;28;20029;-81
2022/11/28 03:53:53;;;;;;;6.65;4.57;;;;;;;3.95;65.18;95473.78;5033420;28;20036;-82
2022/11/28 03:56:38;;;;;;;7.57;4.00;;;;;;;3.99;65.29;95479.25;5003625;28;20068;-81
2022/11/28 03:59:09;;;;;;;5.30;3.60;;;;;;;3.96;64.95;95472.66;4996340;28;20116;-82
2022/11/28 04:01:42;;;;;;;5.55;3.60;;;;;;;3.79;65.50;95473.34;5008983;28;20032;-82
2022/11/28 04:04:10;;;;;;;6.03;3.73;;;;;;;3.69;66.09;95468.63;5026347;28;20030;-82
2022/11/28 04:06:45;;;;;;;6.60;3.85;;;;;;;3.64;66.54;95466.25;4992531;28;20029;-82
2022/11/28 04:09:13;;;;;;;5.13;3.60;;;;;;;3.64;66.69;95458.09;5026731;28;20026;-82
2022/11/28 04:11:51;;;;;;;5.63;3.83;;;;;;;3.65;66.55;95465.09;5008448;28;20029;-82
2022/11/28 04:14:36;;;;;;;6.20;3.72;;;;;;;3.66;66.44;95463.91;4992075;28;20500;-82
2022/11/28 04:17:20;;;;;;;5.13;3.97;;;;;;;3.57;66.66;95460.78;5026783;28;20060;-81
2022/11/28 04:19:49;;;;;;;;;;;;;;;3.64;66.73;95468.97;5026450;28;20393;-80
2022/11/28 04:22:39;;;;;;;4.72;3.17;;;;;;;3.61;66.73;95465.06;4992012;28;19964;-81
2022/11/28 04:25:10;;;;;;;5.50;3.47;;;;;;;3.48;67.02;95466.53;4989573;28;20080;-82
2022/11/28 04:27:45;;;;;;;6.70;3.75;;;;;;;3.44;67.64;95468.44;5024352;28;20297;-81
2022/11/28 04:30:11;;;;;;;4.40;3.55;;;;;;;3.58;67.00;95473.97;4992176;28;20025;-81
2022/11/28 04:32:38;;;;;;;4.90;3.45;;;;;;;3.56;67.11;95473.59;4991709;28;20034;-83
2022/11/28 04:35:06;;;;;;;6.05;4.07;;;;;;;3.57;67.14;95469.72;5008255;28;20093;-82
2022/11/28 04:37:32;;;;;;;4.50;3.22;;;;;;;3.67;66.51;95473.63;4991979;28;20045;-82
2022/11/28 04:39:57;;;;;;;5.30;3.40;;;;;;;3.70;66.74;95473.66;4991569;28;20029;-82
2022/11/28 04:42:26;;;;;;;5.97;4.05;;;;;;;3.69;66.51;95483.00;5024505;28;20033;-82
2022/11/28 04:44:58;;;;;;;5.20;3.17;;;;;;;3.73;66.56;95483.78;5024554;28;20037;-80
2022/11/28 04:47:23;;;;;;;3.50;2.42;;;;;;;3.80;65.86;95474.91;4991815;28;20032;-79
2022/11/28 04:49:49;;;;;;;4.65;3.13;;;;;;;3.82;65.65;95486.16;4974959;28;20049;-80
2022/11/28 04:52:52;;;;;;;4.60;3.53;;;;;;;3.75;66.34;95483.41;5026485;28;20114;-82
2022/11/28 04:55:46;;;;;;;4.45;3.45;;;;;;;3.77;66.57;95486.53;5047479;28;20029;-80
2022/11/28 04:58:25;;;;;;;4.63;3.05;;;;;;;3.67;66.94;95488.03;5012597;28;20084;-80
2022/11/28 05:00:51;;;;;;;5.35;3.35;;;;;;;3.78;66.50;95490.03;5010582;28;20682;-79
2022/11/28 05:03:16;;;;;;;4.88;3.20;;;;;;;3.94;65.68;95494.00;4992489;28;20026;-78
2022/11/28 05:05:44;;;;;;;5.03;2.45;;;;;;;3.89;65.44;95483.47;5012114;28;20033;-80
2022/11/28 05:08:09;;;;;;;5.10;2.88;;;;;;;3.70;66.18;95491.91;4995847;28;20459;-80
2022/11/28 05:10:35;;;;;;;3.97;3.13;;;;;;;3.69;66.58;95485.69;5011920;28;20029;-80
2022/11/28 05:13:00;;;;;;;4.57;3.03;;;;;;;3.72;66.62;95482.22;4995091;28;20033;-80
2022/11/28 05:15:26;;;;;;;4.28;3.22;;;;;;;3.81;66.36;95486.56;5027953;28;20839;-84
2022/11/28 05:17:51;;;;;;;3.55;3.08;;;;;;;3.80;66.13;95487.72;5011479;28;20431;-82
2022/11/28 05:20:17;;;;;;;4.35;3.13;;;;;;;3.83;65.98;95493.16;5011043;28;20033;-82
2022/11/28 05:22:42;;;;;;;3.67;2.97;;;;;;;3.88;65.76;95481.91;4995199;28;20041;-82
2022/11/28 05:25:08;;;;;;;4.05;2.88;;;;;;;3.80;66.33;95488.50;4994690;28;20038;-82
2022/11/28 05:27:33;;;;;;;4.28;3.13;;;;;;;3.89;66.03;95485.41;4979176;28;20467;-82
2022/11/28 05:29:59;;;;;;;3.80;2.53;;;;;;;3.93;65.77;95487.00;5043916;28;20037;-83
2022/11/28 05:32:24;;;;;;;3.65;2.78;;;;;;;3.93;65.69;95478.06;4994373;28;20049;-82
2022/11/28 05:34:50;;;;;;;4.43;2.80;;;;;;;3.84;65.97;95472.97;4994028;28;20033;-82
2022/11/28 05:37:15;;;;;;;4.22;2.80;;;;;;;3.83;66.16;95476.06;4994688;28;20029;-83
2022/11/28 05:39:40;;;;;;;3.55;2.80;;;;;;;3.66;66.34;95488.38;4994928;28;20045;-83
2022/11/28 05:42:06;;;;;;;6.00;3.45;;;;;;;3.72;66.81;95478.72;5010908;28;20032;-82
2022/11/28 05:44:31;;;;;;;5.38;3.22;;;;;;;3.72;67.10;95479.50;5027898;28;20029;-84
2022/11/28 05:46:57;;;;;;;4.32;3.50;;;;;;;3.76;67.32;95482.25;4978090;28;20026;-81
2022/11/28 05:49:24;;;;;;;4.82;3.35;;;;;;;3.78;67.32;95479.13;5027301;28;20048;-82
2022/11/28 05:51:49;;;;;;;4.75;3.67;;;;;;;3.70;67.35;95476.38;5027624;28;20030;-82
2022/11/28 05:54:15;;;;;;;6.80;4.25;;;;;;;3.81;67.32;95479.16;4994130;28;20053;-81
2022/11/28 05:56:40;;;;;;;5.68;4.20;;;;;;;3.92;67.08;95476.50;4994677;28;20037;-82
2022/11/28 05:59:05;;;;;;;5.40;4.38;;;;;;;3.96;66.78;95475.38;5001963;28;20033;-80
2022/11/28 06:01:31;;;;;;;5.25;3.72;;;;;;;4.11;66.14;95481.66;4997398;28;20026;-80
2022/11/28 06:03:59;;;;;;;6.20;4.38;;;;;;;4.12;66.40;95466.88;5011177;28;20029;-81
2022/11/28 06:06:27;;;;;;;7.65;5.22;;;;;;;4.10;66.43;95471.16;5012128;28;20033;-80
2022/11/28 06:08:52;;;;;;;5.30;4.45;;;;;;;4.11;66.50;95473.50;4994671;28;20467;-80
2022/11/28 06:11:18;;;;;;;7.55;4.80;;;;;;;4.16;66.34;95469.63;5027334;28;20021;-82
2022/11/28 06:13:44;;;;;;;5.78;4.45;;;;;;;4.20;66.29;95473.94;5029142;28;20400;-82
2022/11/28 06:16:11;;;;;;;6.35;4.90;;;;;;;4.26;65.80;95472.41;5025726;28;20035;-85
2022/11/28 06:18:37;;;;;;;7.88;5.38;;;;;;;4.28;66.06;95469.28;5011093;28;20434;-79
2022/11/28 06:21:03;;;;;;;6.10;4.50;;;;;;;4.29;65.60;95473.56;5009988;28;20025;-79
2022/11/28 06:23:28;;;;;;;5.68;4.13;;;;;;;4.31;65.60;95479.41;4994762;28;20025;-79
2022/11/28 06:25:54;;;;;;;6.22;4.40;;;;;;;4.25;65.35;95479.00;5010330;28;20129;-79
2022/11/28 06:28:19;;;;;;;7.32;4.65;;;;;;;4.27;65.40;95470.44;5010067;28;20033;-80
2022/11/28 06:30:45;;;;;;;5.15;3.80;;;;;;;4.24;65.65;95477.47;4993217;28;20030;-80
2022/11/28 06:33:10;;;;;;;5.47;3.90;;;;;;;4.22;65.51;95477.03;5042847;28;20030;-80
2022/11/28 06:35:36;;;;;;;5.68;4.10;;;;;;;4.22;65.53;95468.88;5028047;28;20112;-79
2022/11/28 06:38:01;;;;;;;6.20;4.10;;;;;;;4.17;65.47;95474.69;5026033;28;20048;-78
2022/11/28 06:40:26;;;;;;;5.75;4.13;;;;;;;4.22;65.76;95468.09;5026603;28;20052;-81
2022/11/28 06:42:52;;;;;;;6.65;4.47;;;;;;;4.26;65.68;95466.97;4993420;28;20033;-78
2022/11/28 06:45:17;;;;;;;5.95;4.40;;;;;;;4.35;65.77;95473.97;5026355;28;20018;-78
2022/11/28 06:47:43;;;;;;;9.23;4.93;;;;;;;4.39;65.37;95470.09;5008291;28;20038;-76
2022/11/28 06:50:09;;;;;;;6.18;4.75;;;;;;;4.43;65.28;95465.47;4971791;28;20038;-75
2022/11/28 06:52:34;;;;;;;7.32;4.75;;;;;;;4.49;65.07;95463.16;4973256;28;20126;-75
2022/11/28 06:55:00;;;;;;;6.82;4.95;;;;;;;4.58;64.71;95462.78;5007338;28;20038;-75
2022/11/28 06:57:26;;;;;;;7.28;5.47;;;;;;;4.49;64.75;95458.47;5006315;28;20072;-75
2022/11/28 06:59:51;;;;;;;6.50;4.82;;;;;;;4.48;64.71;95461.59;4988337;28;20048;-75
2022/11/28 07:02:17;;;;;;;8.63;5.53;;;;;;;4.57;64.73;95464.72;4988846;28;20026;-75
2022/11/28 07:04:42;;;;;;;9.23;5.93;;;;;;;4.58;64.74;95466.25;4990909;28;20084;-75
2022/11/28 07:07:07;;;;;;;9.98;6.25;;;;;;;4.58;64.44;95465.50;5008667;28;20030;-76
2022/11/28 07:09:33;;;;;;;8.68;5.35;;;;;;;4.65;64.43;95462.81;4973792;28;20026;-75
2022/11/28 07:11:58;;;;;;;10.20;6.35;;;;;;;4.66;64.72;95467.09;4990347;28;20151;-76
2022/11/28 07:14:24;;;;;;;7.70;6.03;;;;;;;4.68;64.52;95470.97;4990245;28;20022;-76
2022/11/28 07:16:49;;;;;;;8.43;5.80;;;;;;;4.70;64.42;95468.66;4989993;28;20025;-76
2022/11/28 07:19:15;;;;;;;8.70;6.18;;;;;;;4.74;63.94;95463.97;5006470;28;20036;-76
2022/11/28 07:21:40;;;;;;;8.52;5.95;;;;;;;4.74;63.91;95471.38;5005754;28;20133;-75
2022/11/28 07:24:06;;;;;;;6.75;5.32;;;;;;;4.71;63.86;95469.44;5007587;28;20030;-76
2022/11/28 07:26:31;;;;;;;9.63;6.05;;;;;;;4.79;63.62;95466.31;4972552;28;20026;-76
2022/11/28 07:28:58;;;;;;;11.13;6.75;;;;;;;4.85;63.15;95472.16;4989910;28;20026;-76
2022/11/28 07:31:25;;;;;;;12.35;7.95;;;;;;;4.84;63.75;95469.84;5006544;28;20156;-76
2022/11/28 07:33:51;;;;;;;12.40;8.30;;;;;;;4.91;63.45;95467.13;4989565;28;20161;-76
2022/11/28 07:36:24;;;;;;;13.38;8.50;;;;;;;4.89;63.44;95459.34;4972796;28;20494;-75
2022/11/28 07:38:51;;;;;;;15.25;9.23;;;;;;;4.97;63.45;95468.28;4988738;28;20034;-76
2022/11/28 07:41:16;;;;;;;12.63;7.80;;;;;;;5.03;62.93;95458.56;4973213;28;20029;-76
2022/11/28 07:43:43;;;;;;;11.80;7.50;;;;;;;5.13;63.16;95457.81;4988941;28;20014;-76
2022/11/28 07:46:10;;;;;;;11.82;8.05;;;;;;;5.15;62.98;95454.69;4957325;28;20022;-76
2022/11/28 07:48:36;;;;;;;13.40;7.88;;;;;;;5.30;62.81;95456.25;4976718;28;20453;-76
2022/11/28 07:51:08;;;;;;;9.68;6.85;;;;;;;5.28;62.13;95453.91;4988881;28;20594;-76
2022/11/28 07:53:34;;;;;;;14.70;7.22;;;;;;;5.40;62.47;95463.66;5021777;28;20026;-76
2022/11/28 07:56:02;;;;;;;10.13;7.18;;;;;;;5.50;62.54;95460.13;5004896;28;20381;-76
2022/11/28 07:58:27;;;;;;;10.90;7.53;;;;;;;5.64;61.76;95458.56;5024571;28;20025;-76
2022/11/28 08:00:53;;;;;;;11.82;7.88;;;;;;;5.76;61.47;95456.19;5024403;28;20412;-76
2022/11/28 08:03:18;;;;;;;10.50;7.57;;;;;;;5.86;61.55;95454.63;4992432;28;20033;-76
2022/11/28 08:05:48;;;;;;;10.65;8.45;;;;;;;6.08;60.92;95460.84;5008288;28;20025;-76
2022/11/28 08:08:16;;;;;;;15.13;9.52;;;;;;;6.09;61.02;95457.72;5025428;28;20032;-75
2022/11/28 08:10:42;;;;;;;15.32;9.23;;;;;;;6.37;60.51;95450.59;5009227;28;20116;-75
2022/11/28 08:13:08;;;;;;;14.10;8.75;;;;;;;6.90;59.08;95447.56;5008790;28;20029;-76
2022/11/28 08:15:36;;;;;;;13.88;8.30;;;;;;;7.28;57.69;95452.34;5041381;28;20017;-76
2022/11/28 08:18:02;;;;;;;12.75;8.05;;;;;;;7.42;57.55;95449.53;5008598;28;20029;-76
2022/11/28 08:20:27;;;;;;;13.23;8.45;;;;;;;7.28;58.19;95450.41;5024911;28;20052;-75
2022/11/28 08:22:53;;;;;;;13.15;8.88;;;;;;;7.09;57.93;95456.41;4991489;28;20070;-75
2022/11/28 08:25:18;;;;;;;9.93;7.03;;;;;;;7.07;57.33;95464.25;5008203;28;20029;-75
2022/11/28 08:27:43;;;;;;;8.98;6.18;;;;;;;6.92;57.09;95458.84;5007381;28;20088;-75
2022/11/28 08:30:09;;;;;;;7.78;5.50;;;;;;;6.93;56.73;95456.91;4991994;28;20033;-75
2022/11/28 08:32:34;;;;;;;6.78;4.45;;;;;;;6.91;56.46;95443.63;5007722;28;20029;-76
2022/11/28 08:35:00;;;;;;;5.68;4.38;;;;;;;6.90;56.53;95438.59;5023859;28;20026;-76
2022/11/28 08:37:27;;;;;;;7.35;4.85;;;;;;;6.70;56.97;95435.56;4975688;28;20037;-76
2022/11/28 08:39:52;;;;;;;6.80;4.75;;;;;;;6.83;56.68;95444.09;4994348;28;20562;-76
2022/11/28 08:42:18;;;;;;;5.93;4.05;;;;;;;6.81;56.40;95441.75;5029084;28;20026;-76
2022/11/28 08:44:43;;;;;;;7.32;4.95;;;;;;;6.74;56.72;95439.06;4995022;28;20409;-76
2022/11/28 08:47:09;;;;;;;7.18;5.20;;;;;;;6.69;57.32;95441.44;5012230;28;20454;-76
2022/11/28 08:49:36;;;;;;;8.30;5.43;;;;;;;6.64;56.81;95431.69;5011371;28;20369;-76
2022/11/28 08:52:02;;;;;;;8.82;5.15;;;;;;;6.64;57.24;95437.16;5011661;28;20045;-76
2022/11/28 08:54:27;;;;;;;8.98;6.13;;;;;;;6.66;57.66;95432.09;5028775;28;20021;-76
2022/11/28 08:56:53;;;;;;;7.75;5.88;;;;;;;6.62;57.80;95432.09;5011347;28;20099;-76
2022/11/28 08:59:18;;;;;;;7.80;5.30;;;;;;;6.65;57.83;95420.41;5012076;28;20037;-76
2022/11/28 09:01:44;;;;;;;7.72;5.38;;;;;;;6.58;57.78;95414.94;5027556;28;20471;-76
2022/11/28 09:04:09;;;;;;;8.20;5.65;;;;;;;6.62;57.88;95415.72;5045410;28;20037;-76
2022/11/28 09:06:37;;;;;;;7.90;5.10;;;;;;;6.60;57.33;95409.88;5011226;28;20044;-76
2022/11/28 09:09:03;;;;;;;9.18;5.18;;;;;;;6.57;57.19;95407.16;4995473;28;20080;-76
2022/11/28 09:11:28;;;;;;;8.15;5.03;;;;;;;6.60;56.58;95396.22;5027818;28;20029;-76
2022/11/28 09:13:54;;;;;;;6.72;5.60;;;;;;;6.66;56.36;95404.78;5011173;28;20044;-76
2022/11/28 09:16:20;;;;;;;7.35;4.93;;;;;;;6.74;56.36;95394.56;5028500;28;20447;-77
2022/11/28 09:18:45;;;;;;;8.30;5.47;;;;;;;6.78;55.51;95404.31;5012386;28;20068;-76
2022/11/28 09:21:11;;;;;;;6.93;4.43;;;;;;;6.76;54.76;95392.97;5045952;28;20511;-76
2022/11/28 09:23:37;;;;;;;8.05;5.03;;;;;;;6.58;55.02;95395.81;5027706;28;20021;-76
2022/11/28 09:26:10;;;;;;;7.80;4.82;;;;;;;6.42;55.60;95400.22;5028922;28;20150;-76
2022/11/28 09:28:36;;;;;;;6.03;4.43;;;;;;;6.20;56.86;95389.41;5028775;28;20464;-77
2022/11/28 09:31:02;;;;;;;5.65;4.32;;;;;;;6.11;56.46;95389.06;5029254;28;20036;-77
2022/11/28 09:33:28;;;;;;;6.32;3.80;;;;;;;6.03;56.83;95379.34;5028124;28;20041;-75
2022/11/28 09:35:54;;;;;;;7.18;4.70;;;;;;;6.00;56.73;95378.19;5010869;28;20036;-76
2022/11/28 09:38:23;;;;;;;7.35;4.10;;;;;;;6.17;56.04;95368.38;5011718;28;20034;-76
2022/11/28 09:40:49;;;;;;;5.50;2.67;;;;;;;6.50;53.62;95361.56;5010863;28;20128;-76
2022/11/28 09:43:18;;;;;;;7.53;4.45;;;;;;;6.48;54.84;95360.38;4994989;28;20037;-76
2022/11/28 09:45:43;;;;;;;6.57;3.97;;;;;;;6.58;53.90;95356.81;4994207;28;20037;-74
2022/11/28 09:48:29;;;;;;;14.20;6.05;;;;;;;7.16;52.94;95361.41;5010923;28;20073;-76
2022/11/28 09:51:02;;;;;;;3.88;3.03;;;;;;;7.89;49.67;95348.56;5028760;28;20064;-75
2022/11/28 09:53:31;;;;;;;4.43;3.60;;;;;;;8.49;49.39;95353.31;5010273;28;20436;-74
2022/11/28 09:56:13;;;;;;;4.57;3.15;;;;;;;9.28;48.26;95352.84;4995247;28;20038;-77
2022/11/28 09:58:54;;;;;;;3.92;2.75;;;;;;;10.01;45.37;95348.34;5011478;28;20048;-76
2022/11/28 10:01:36;;;;;;;2.72;2.05;;;;;;;10.54;44.42;95342.97;5028031;28;20025;-75
2022/11/28 10:04:20;;;;;;;3.60;2.55;;;;;;;11.26;42.50;95356.59;4996365;28;20029;-75
2022/11/28 10:06:52;;;;;;;3.42;2.35;;;;;;;12.31;41.32;95360.94;5027815;28;20143;-76
2022/11/28 10:09:50;;;;;;;3.25;2.20;;;;;;;13.15;38.81;95356.78;5010954;28;20036;-76
2022/11/28 10:12:52;;;;;;;3.40;2.00;;;;;;;13.81;37.40;95345.94;4996197;28;20052;-76
2022/11/28 10:15:18;;;;;;;2.80;2.15;;;;;;;13.07;38.30;95343.66;5012738;28;20034;-75
2022/11/28 10:18:14;;;;;;;3.95;3.03;;;;;;;12.56;39.13;95349.16;5010899;28;20087;-75
2022/11/28 10:20:44;;;;;;;4.35;2.75;;;;;;;11.55;41.06;95342.13;5028208;28;20025;-77
2022/11/28 10:23:39;;;;;;;3.70;3.30;;;;;;;11.19;41.82;95329.28;4995710;28;20026;-75
2022/11/28 10:26:16;;;;;;;5.00;3.88;;;;;;;10.69;42.55;95324.97;5021902;28;20467;-74
2022/11/28 10:28:44;;;;;;;6.18;4.45;;;;;;;10.53;43.26;95319.44;5010466;28;20479;-75
2022/11/28 10:31:27;;;;;;;6.13;4.28;;;;;;;10.44;44.09;95317.28;4994197;28;20083;-76
2022/11/28 10:34:07;;;;;;;5.53;4.80;;;;;;;10.27;44.53;95321.97;5010451;28;20033;-75
2022/11/28 10:36:43;;;;;;;6.82;4.78;;;;;;;10.52;44.59;95309.63;5009804;28;20115;-76
2022/11/28 10:39:10;;;;;;;4.90;4.00;;;;;;;11.25;41.85;95318.53;5011308;28;20073;-77
2022/11/28 10:41:41;;;;;;;7.03;4.55;;;;;;;11.05;42.07;95315.84;5058619;28;20040;-76
2022/11/28 10:44:24;;;;;;;6.05;3.95;;;;;;;11.02;42.48;95311.22;5043084;28;20487;-76
2022/11/28 10:47:17;;;;;;;5.78;4.35;;;;;;;11.82;41.82;95311.53;5025995;28;20034;-76
2022/11/28 10:50:01;;;;;;;5.43;4.32;;;;;;;13.03;39.07;95291.34;5025653;28;20108;-77
2022/11/28 10:52:48;;;;;;;5.03;3.85;;;;;;;13.46;38.43;95298.97;5010485;28;20033;-76
2022/11/28 10:55:32;;;;;;;5.20;3.50;;;;;;;13.52;38.11;95299.19;5026864;28;20480;-76
2022/11/28 10:58:22;;;;;;;5.10;3.92;;;;;;;13.09;38.07;95300.59;5027044;28;20144;-74
2022/11/28 11:00:50;;;;;;;6.72;4.25;;;;;;;12.70;38.80;95297.09;5012539;28;20029;-76
2022/11/28 11:03:17;;;;;;;5.50;3.72;;;;;;;12.58;39.24;95297.13;4992930;28;20033;-76
2022/11/28 11:05:42;;;;;;;7.82;3.22;;;;;;;12.16;39.30;95297.19;5009903;28;20044;-77
2022/11/28 11:08:07;;;;;;;4.55;4.00;;;;;;;12.04;40.07;95301.44;5008818;28;20026;-77
2022/11/28 11:10:48;;;;;;;5.13;3.75;;;;;;;11.81;40.43;95291.47;5027077;28;20057;-74
2022/11/28 11:13:15;;;;;;;4.07;3.13;;;;;;;11.48;40.34;95293.53;5027305;28;20121;-75
2022/11/28 11:15:41;;;;;;;4.65;3.30;;;;;;;11.30;40.79;95280.25;5008684;28;20080;-76
2022/11/28 11:18:22;;;;;;;4.63;3.22;;;;;;;11.08;41.14;95282.00;5009628;28;20026;-77
2022/11/28 11:20:47;;;;;;;5.43;3.10;;;;;;;10.82;41.20;95281.03;5026247;28;20120;-76
2022/11/28 11:23:21;;;;;;;3.47;3.10;;;;;;;10.55;41.33;95267.53;5009046;28;20032;-76
2022/11/28 11:25:54;;;;;;;4.95;3.58;;;;;;;10.30;42.34;95262.63;4992619;28;20044;-76
2022/11/28 11:28:31;;;;;;;7.18;4.15;;;;;;;10.00;43.00;95263.66;4993032;28;20504;-76
2022/11/28 11:31:04;;;;;;;6.65;3.60;;;;;;;9.82;43.36;95256.56;5012904;28;20095;-76
2022/11/28 11:33:33;;;;;;;5.13;3.40;;;;;;;9.67;43.38;95258.03;5025103;28;20538;-76
2022/11/28 11:35:58;;;;;;;4.80;3.85;;;;;;;9.47;44.04;95249.81;5010324;28;20040;-76
2022/11/28 11:38:43;;;;;;;6.25;3.78;;;;;;;9.48;44.18;95245.09;5008706;28;20411;-76
2022/11/28 11:41:28;;;;;;;5.85;3.60;;;;;;;9.69;43.78;95238.38;5009025;28;20058;-76
2022/11/28 11:43:55;;;;;;;5.30;4.35;;;;;;;9.39;44.72;95247.63;5026143;28;20096;-76
2022/11/28 11:46:21;;;;;;;6.13;3.90;;;;;;;9.18;45.66;95237.84;4991607;28;20569;-76
2022/11/28 11:48:51;;;;;;;6.30;4.00;;;;;;;9.02;46.04;95244.78;5009888;28;20188;-75
2022/11/28 11:51:20;;;;;;;8.75;4.18;;;;;;;9.00;46.28;95238.13;5024759;28;20034;-75
2022/11/28 11:53:45;;;;;;;8.55;4.13;;;;;;;9.02;46.14;95247.50;5027035;28;20055;-76